Sutton Coldfield, United Kingdom

8:03 AM BST on May 27, 2015 (GMT +0100)
Maney | | Change Station
CLOSE
Current Station
Personal Weather Station
Location: Sutton Coldfield, WEST MIDLANDS
Elevation: 443 ft
Nearby Weather Stations

Elev 443 ft 52.55 °N, 1.82 °W | Updated 1 minute ago

Mostly Cloudy
Mostly Cloudy
59.1 °F
Feels Like 59.1 °F
N
0.0
Wind Variable Wind from WSW
Gusts 6.3 mph

Today
High -- | Low -- °F
--% Chance of Precip.
Yesterday
High -- | Low -- °F
Precip. -- in
4:55 AM 9:14 PM
Waxing Gibbous, 65% visible
Pressure 30.30 in
Visibility 6.2 miles
Clouds Mostly Cloudy 3300 ft
Dew Point 41.5 °F
Humidity 52%
Rainfall -999.00 in
Snow Depth Not available.
UV 1 out of 12
Pollen Not available.
Air Quality Not available.
Flu Activity Not available.
METAR EGBB 270650Z 27005KT 230V310 9999 BKN033 10/05 Q1026

More Conditions Fewer Conditions

Pressure 30.30 in
Visibility 6.2 miles
Clouds Mostly Cloudy 3300 ft
Dew Point 41.5 °F
Humidity 52%
Rainfall -999.00 in
Snow Depth Not available.
UV 1 out of 12
Pollen Not available.
Air Quality Not available.
Flu Activity Not available.
METAR EGBB 270650Z 27005KT 230V310 9999 BKN033 10/05 Q1026

More Conditions Fewer Conditions

10-Day Weather Forecast

Almanac

Astronomy

May. 27, 2015 Rise Set
Actual Time
Civil Twilight
Nautical Twilight
Astronomical Twilight
Moon
Length of Visible Light
Length of Day
Tomorrow will be .
, % of the Moon is Illuminated

Today's Extremes

Country Highs Country Lows

Community

WunderPhotos

Upload Photos

1,824,630 photos uploaded!

WunderBlogs® & News

Nearby

Air Quality

  Air Quality AQ Index Pollutant
Not available.

Snow Depth

Station Depth Elevation

Earthquake Activity

City Distance Mag. Time & Date
Minimum magnitude displayed is 2.5.

Coastal Water Temperatures

Place Temperature

Stations

Nearby Weather Stations

Station Location Temp. Windchill Dew Point Humidity Wind Precip. Elev Updated Type